Time;durP1;ratioP1;P1;durP2;ratioP2;P2;SDS_P1;SDS_P2;PMS_P1;PMS_P2;Temp;Humidity;BMP_temperature;BMP_pressure;BME280_temperature;BME280_humidity;BME280_pressure;Samples;Min_cycle;Max_cycle;Signal;HPM_P1;HPM_P2
2022/12/24 00:01:33;;;;;;;5.07;1.00;;;;;;;9.81;91.17;96748.38;5042475;28;20196;-69
2022/12/24 00:04:00;;;;;;;11.45;1.90;;;;;;;9.94;89.59;96756.00;5039519;28;20394;-69
2022/12/24 00:06:26;;;;;;;5.88;0.95;;;;;;;9.91;89.91;96759.22;5043474;28;20471;-69
2022/12/24 00:08:53;;;;;;;8.55;1.88;;;;;;;9.98;89.52;96762.50;5043656;28;20037;-69
2022/12/24 00:11:20;;;;;;;6.78;1.15;;;;;;;9.95;89.55;96765.72;5030518;28;20512;-69
2022/12/24 00:13:47;;;;;;;6.00;1.25;;;;;;;10.12;88.15;96768.25;5039185;28;20135;-69
2022/12/24 00:16:14;;;;;;;6.85;1.33;;;;;;;10.18;88.35;96770.97;5035058;28;20049;-69
2022/12/24 00:18:41;;;;;;;6.32;1.20;;;;;;;10.26;87.89;96784.81;5035746;28;20477;-69
2022/12/24 00:21:13;;;;;;;7.68;1.30;;;;;;;10.27;88.37;96767.50;5023732;28;20261;-69
2022/12/24 00:23:40;;;;;;;9.18;2.35;;;;;;;10.30;87.63;96763.47;5042055;28;20424;-69
2022/12/24 00:26:07;;;;;;;6.35;1.13;;;;;;;10.41;87.04;96769.72;5043400;28;20111;-69
2022/12/24 00:28:33;;;;;;;8.68;1.48;;;;;;;10.26;88.67;96759.66;5038844;28;20099;-69
2022/12/24 00:31:07;;;;;;;3.92;0.98;;;;;;;10.28;88.00;96760.19;5021270;28;20412;-69
2022/12/24 00:33:33;;;;;;;6.80;1.25;;;;;;;10.28;88.15;96758.31;5039779;28;20098;-69
2022/12/24 00:36:00;;;;;;;9.75;1.88;;;;;;;10.27;87.83;96759.38;5035299;28;20697;-69
2022/12/24 00:38:26;;;;;;;7.07;1.23;;;;;;;10.22;88.22;96764.78;5026534;28;20064;-69
2022/12/24 00:41:04;;;;;;;7.63;1.30;;;;;;;10.13;88.54;96759.06;5039736;28;20411;-69
2022/12/24 00:43:31;;;;;;;8.32;1.60;;;;;;;10.02;89.22;96762.78;5042622;28;20080;-68
2022/12/24 00:45:58;;;;;;;5.80;1.35;;;;;;;9.98;89.48;96756.28;5042603;28;20045;-68
2022/12/24 00:48:25;;;;;;;5.15;1.10;;;;;;;10.00;89.73;96765.75;5025557;28;20041;-68
2022/12/24 00:50:51;;;;;;;4.70;1.30;;;;;;;10.09;88.90;96782.31;5041627;28;20122;-69
2022/12/24 00:53:18;;;;;;;7.43;1.50;;;;;;;10.07;88.67;96787.19;5039157;28;20056;-68
2022/12/24 00:55:44;;;;;;;4.07;1.20;;;;;;;10.10;88.98;96793.94;5058721;28;20067;-68
2022/12/24 00:58:11;;;;;;;9.23;1.63;;;;;;;10.10;89.16;96804.78;5054658;28;20045;-68
2022/12/24 01:00:37;;;;;;;5.97;1.30;;;;;;;10.17;91.19;96812.66;5041606;28;20040;-68
2022/12/24 01:03:04;;;;;;;8.02;1.42;;;;;;;9.98;92.13;96815.78;5042330;28;20056;-69
2022/12/24 01:05:31;;;;;;;5.78;1.50;;;;;;;9.80;94.81;96815.13;5043586;28;20051;-69
2022/12/24 01:07:57;;;;;;;7.18;1.83;;;;;;;9.56;97.62;96818.22;5043096;28;20060;-69
2022/12/24 01:10:24;;;;;;;9.38;2.10;;;;;;;9.47;98.86;96828.69;5033533;28;20045;-69
2022/12/24 01:12:51;;;;;;;8.18;1.60;;;;;;;9.35;100.00;96833.44;5037864;28;20047;-68
2022/12/24 01:15:17;;;;;;;6.20;1.38;;;;;;;9.28;100.00;96833.66;5044151;28;20053;-69
2022/12/24 01:17:44;;;;;;;10.55;1.60;;;;;;;9.24;100.00;96846.88;5033796;28;20397;-69
2022/12/24 01:20:14;;;;;;;12.25;1.88;;;;;;;9.17;100.00;96856.25;5043116;28;20132;-69
2022/12/24 01:22:41;;;;;;;8.85;1.35;;;;;;;9.16;100.00;96874.34;5043372;28;20037;-69
2022/12/24 01:25:08;;;;;;;6.82;1.40;;;;;;;9.10;100.00;96892.38;5045930;28;20095;-69
2022/12/24 01:27:35;;;;;;;12.48;2.08;;;;;;;9.02;100.00;96897.41;5044341;28;20049;-69
2022/12/24 01:30:03;;;;;;;12.95;3.15;;;;;;;8.96;100.00;96891.97;5045583;28;20045;-69
2022/12/24 01:32:30;;;;;;;9.52;1.48;;;;;;;8.80;100.00;96900.94;5044530;28;20156;-68
2022/12/24 01:34:57;;;;;;;10.48;1.92;;;;;;;8.77;100.00;96901.47;5038752;28;20049;-68
2022/12/24 01:37:23;;;;;;;7.18;1.40;;;;;;;8.76;100.00;96894.44;5024756;28;20103;-68
2022/12/24 01:39:50;;;;;;;7.53;2.00;;;;;;;8.73;100.00;96911.16;5027899;28;20493;-68
2022/12/24 01:45:49;;;;;;;6.32;1.10;;;;;;;8.76;100.00;96921.41;5041175;28;20041;-70
2022/12/24 01:48:33;;;;;;;6.53;1.50;;;;;;;8.69;100.00;96930.53;5007818;28;20050;-69
2022/12/24 01:51:20;;;;;;;10.10;1.80;;;;;;;8.65;100.00;96933.97;4996594;28;20050;-69
2022/12/24 01:53:54;;;;;;;8.48;1.48;;;;;;;8.66;100.00;96916.75;5020818;28;20057;-69
2022/12/24 01:56:21;;;;;;;7.65;1.45;;;;;;;8.71;100.00;96928.38;5026465;28;20049;-69
2022/12/24 01:58:53;;;;;;;12.18;2.28;;;;;;;8.65;100.00;96936.66;5040037;28;20037;-69
2022/12/24 02:01:20;;;;;;;9.73;1.60;;;;;;;8.68;100.00;96955.06;5048313;28;20508;-69
2022/12/24 02:03:47;;;;;;;9.27;1.88;;;;;;;8.74;100.00;96953.25;5033005;28;20051;-69
2022/12/24 02:06:15;;;;;;;7.95;1.45;;;;;;;8.66;100.00;96944.53;5044818;28;20059;-68
2022/12/24 02:08:43;;;;;;;8.85;2.00;;;;;;;8.63;100.00;96946.91;5049066;28;20044;-69
2022/12/24 02:11:09;;;;;;;4.57;1.45;;;;;;;8.54;100.00;96958.13;5046515;28;20041;-69
2022/12/24 02:13:36;;;;;;;6.85;1.92;;;;;;;8.46;100.00;96926.16;5030611;28;20080;-69
2022/12/24 02:16:10;;;;;;;7.07;1.38;;;;;;;8.56;100.00;96937.09;5046007;28;20556;-69
2022/12/24 02:19:02;;;;;;;8.98;1.58;;;;;;;8.48;100.00;96937.53;5034717;28;20045;-69
2022/12/24 02:21:42;;;;;;;5.97;1.40;;;;;;;8.46;100.00;96934.25;5046975;28;20119;-69
2022/12/24 02:24:08;;;;;;;10.73;1.90;;;;;;;8.43;100.00;96946.34;5046464;28;20045;-69
2022/12/24 02:26:56;;;;;;;6.90;1.08;;;;;;;8.49;100.00;96946.44;5044765;28;20204;-69
2022/12/24 02:29:26;;;;;;;8.93;1.88;;;;;;;8.45;100.00;96941.50;5048114;28;20500;-69
2022/12/24 02:32:01;;;;;;;7.32;1.70;;;;;;;8.46;100.00;96937.78;5046744;28;20040;-69
2022/12/24 02:35:03;;;;;;;10.70;2.38;;;;;;;8.40;100.00;96927.16;5043321;28;20099;-69
2022/12/24 02:37:38;;;;;;;;;;;;;;;8.29;100.00;96918.91;5046234;28;20548;-69
2022/12/24 02:40:13;;;;;;;11.40;1.83;;;;;;;8.18;100.00;96920.66;5034511;28;20016;-70
2022/12/24 02:42:48;;;;;;;12.07;2.15;;;;;;;8.30;100.00;96925.13;5040495;28;20041;-69
2022/12/24 02:45:20;;;;;;;7.32;1.92;;;;;;;8.41;100.00;96915.31;5040309;28;20046;-69
2022/12/24 02:47:48;;;;;;;9.57;1.80;;;;;;;8.40;100.00;96927.16;5029271;28;20041;-69
2022/12/24 02:50:16;;;;;;;9.68;1.70;;;;;;;8.51;100.00;96955.09;5041291;28;20040;-69
2022/12/24 02:52:45;;;;;;;6.10;1.60;;;;;;;8.62;100.00;96950.69;5047196;28;20072;-69
2022/12/24 02:55:28;;;;;;;8.57;1.77;;;;;;;8.59;100.00;96939.31;5051203;28;20048;-69
2022/12/24 02:58:00;;;;;;;12.98;2.30;;;;;;;8.45;100.00;96948.81;5048765;28;20045;-69
2022/12/24 03:00:38;;;;;;;9.65;1.73;;;;;;;8.38;100.00;96943.59;5038979;28;20049;-69
2022/12/24 03:03:27;;;;;;;9.93;1.65;;;;;;;8.30;100.00;96941.31;5044960;28;20508;-69
2022/12/24 03:06:08;;;;;;;8.18;2.00;;;;;;;8.30;100.00;96952.91;5043144;28;20060;-69
2022/12/24 03:08:41;;;;;;;9.13;1.83;;;;;;;8.18;100.00;96955.72;5049594;28;20052;-69
2022/12/24 03:11:10;;;;;;;8.57;1.35;;;;;;;8.22;100.00;96968.72;5031470;28;20292;-69
2022/12/24 03:13:38;;;;;;;8.15;1.77;;;;;;;8.17;100.00;96961.34;5049338;28;20083;-69
2022/12/24 03:16:16;;;;;;;9.30;1.85;;;;;;;8.25;100.00;96960.94;5035269;28;20059;-69
2022/12/24 03:18:46;;;;;;;12.52;2.20;;;;;;;8.28;100.00;96975.81;5033167;28;20113;-69
2022/12/24 03:21:20;;;;;;;10.30;1.98;;;;;;;8.33;100.00;96990.19;5048690;28;20536;-69
2022/12/24 03:23:47;;;;;;;10.13;1.90;;;;;;;8.32;100.00;96990.44;5039229;28;20041;-69
2022/12/24 03:26:17;;;;;;;8.18;1.90;;;;;;;8.39;100.00;96984.88;5044449;28;20045;-69
2022/12/24 03:28:45;;;;;;;12.50;1.77;;;;;;;8.31;100.00;96981.53;5049524;28;20504;-69
2022/12/24 03:31:13;;;;;;;15.30;2.60;;;;;;;8.29;100.00;96985.56;5031327;28;20120;-69
2022/12/24 03:33:40;;;;;;;11.80;1.90;;;;;;;8.35;100.00;96987.25;5028030;28;20052;-69
2022/12/24 03:36:10;;;;;;;9.95;1.65;;;;;;;8.44;100.00;96982.25;5043507;28;20515;-69
2022/12/24 03:38:37;;;;;;;11.18;1.85;;;;;;;8.40;100.00;96997.31;5047452;28;20103;-69
2022/12/24 03:41:04;;;;;;;8.18;1.58;;;;;;;8.41;100.00;97005.13;5030466;28;20045;-69
2022/12/24 03:43:31;;;;;;;7.05;1.70;;;;;;;8.37;100.00;97000.50;5030144;28;20037;-69
2022/12/24 03:46:01;;;;;;;11.55;2.40;;;;;;;8.30;100.00;97009.56;5047034;28;20072;-69
2022/12/24 03:48:28;;;;;;;10.20;2.30;;;;;;;8.30;100.00;97008.75;5031700;28;20079;-69
2022/12/24 03:50:58;;;;;;;7.80;1.67;;;;;;;8.01;100.00;97017.75;5032456;28;20034;-69
2022/12/24 03:53:25;;;;;;;8.23;1.88;;;;;;;7.73;100.00;97011.31;5026808;28;20049;-69
2022/12/24 03:55:51;;;;;;;10.55;2.15;;;;;;;7.72;100.00;97017.78;5035112;28;20046;-69
2022/12/24 03:58:18;;;;;;;5.05;1.52;;;;;;;7.66;100.00;97014.19;5034335;28;20517;-69
2022/12/24 04:00:44;;;;;;;9.68;1.85;;;;;;;7.65;100.00;97015.25;5045482;28;20110;-69
2022/12/24 04:03:11;;;;;;;10.32;1.75;;;;;;;7.61;100.00;97019.47;5033325;28;20471;-69
2022/12/24 04:05:37;;;;;;;7.28;1.67;;;;;;;7.51;100.00;97020.09;5038512;28;20037;-69
2022/12/24 04:08:04;;;;;;;7.35;1.67;;;;;;;7.50;100.00;97025.72;5047961;28;20087;-69
2022/12/24 04:10:31;;;;;;;6.85;1.63;;;;;;;7.47;100.00;97036.97;5037358;28;20505;-69
2022/12/24 04:12:57;;;;;;;10.38;2.63;;;;;;;7.54;100.00;97025.00;5026434;28;20049;-69
2022/12/24 04:15:24;;;;;;;9.80;2.00;;;;;;;7.36;100.00;97015.25;5035691;28;20127;-69
2022/12/24 04:17:50;;;;;;;9.48;2.33;;;;;;;7.38;100.00;97023.88;5042557;28;20835;-69
2022/12/24 04:20:17;;;;;;;9.40;1.75;;;;;;;7.44;100.00;97034.78;5041838;28;20037;-69
2022/12/24 04:22:43;;;;;;;7.50;1.95;;;;;;;7.43;100.00;97033.94;5031361;28;20071;-69
2022/12/24 04:25:10;;;;;;;13.00;1.73;;;;;;;7.34;100.00;97033.50;5045723;28;20033;-69
2022/12/24 04:27:36;;;;;;;10.07;1.90;;;;;;;7.39;100.00;97035.50;5046928;28;20051;-69
2022/12/24 04:30:03;;;;;;;8.82;1.90;;;;;;;7.29;100.00;97026.16;5043692;28;20053;-69
2022/12/24 04:32:30;;;;;;;6.90;1.90;;;;;;;7.23;100.00;97032.47;5025311;28;20041;-69
2022/12/24 04:34:56;;;;;;;6.30;1.85;;;;;;;7.22;100.00;97047.00;5028712;28;20050;-69
2022/12/24 04:37:23;;;;;;;11.70;2.13;;;;;;;7.29;100.00;97044.19;5047645;28;20563;-69
2022/12/24 04:39:49;;;;;;;9.68;2.10;;;;;;;7.33;100.00;97049.94;5046685;28;20044;-69
2022/12/24 04:42:16;;;;;;;11.45;2.33;;;;;;;7.26;100.00;97058.94;5026362;28;20038;-69
2022/12/24 04:44:42;;;;;;;7.25;1.75;;;;;;;7.29;100.00;97053.09;5028458;28;20099;-69
2022/12/24 04:47:09;;;;;;;10.60;2.10;;;;;;;7.20;100.00;97062.59;5034296;28;20045;-69
2022/12/24 04:49:36;;;;;;;16.35;2.50;;;;;;;7.10;100.00;97071.28;5037195;28;20048;-69
2022/12/24 04:52:02;;;;;;;9.25;2.10;;;;;;;7.09;100.00;97074.19;5027908;28;20033;-69
2022/12/24 04:54:29;;;;;;;7.03;1.75;;;;;;;7.12;100.00;97081.81;5037126;28;20036;-69
2022/12/24 04:56:55;;;;;;;9.20;1.63;;;;;;;7.29;100.00;97076.50;5040073;28;20099;-69
2022/12/24 04:59:22;;;;;;;9.18;1.65;;;;;;;7.26;100.00;97063.53;5025418;28;20096;-69
2022/12/24 05:01:49;;;;;;;10.32;2.17;;;;;;;7.28;100.00;97064.09;5036627;28;20041;-69
2022/12/24 05:04:15;;;;;;;6.82;1.20;;;;;;;7.38;100.00;97069.69;5046619;28;20111;-69
2022/12/24 05:06:42;;;;;;;10.40;1.70;;;;;;;7.64;100.00;97059.41;5042787;28;20071;-69
2022/12/24 05:09:08;;;;;;;9.77;1.70;;;;;;;7.77;100.00;97046.69;5045015;28;20127;-69
2022/12/24 05:11:35;;;;;;;7.88;1.70;;;;;;;7.95;100.00;97051.06;5044193;28;20033;-69
2022/12/24 05:14:01;;;;;;;10.05;1.67;;;;;;;8.01;100.00;97052.81;5026709;28;20471;-69
2022/12/24 05:16:28;;;;;;;9.80;1.80;;;;;;;8.14;100.00;97065.13;5031474;28;20871;-69
2022/12/24 05:18:55;;;;;;;4.25;1.33;;;;;;;8.24;100.00;97060.97;5042708;28;20044;-69
2022/12/24 05:21:23;;;;;;;8.80;1.50;;;;;;;8.09;100.00;97038.09;5043218;28;20507;-69
2022/12/24 05:26:37;;;;;;;8.85;1.48;;;;;;;8.25;100.00;97038.34;5044521;28;20487;-69
2022/12/24 05:29:06;;;;;;;9.25;1.70;;;;;;;8.18;100.00;97041.19;5043102;28;20109;-69
2022/12/24 05:31:33;;;;;;;5.03;1.33;;;;;;;8.27;100.00;97041.59;5042310;28;20548;-69
2022/12/24 05:34:00;;;;;;;7.13;1.73;;;;;;;8.29;100.00;97040.28;5048155;28;20466;-69
2022/12/24 05:36:27;;;;;;;13.85;2.08;;;;;;;8.33;100.00;97030.66;5044331;28;20455;-69
2022/12/24 05:38:53;;;;;;;14.93;3.35;;;;;;;8.36;99.50;97034.72;5030084;28;20072;-69
2022/12/24 05:41:20;;;;;;;9.25;1.40;;;;;;;8.21;100.00;97046.09;5043963;28;20041;-69
2022/12/24 05:43:47;;;;;;;13.05;1.58;;;;;;;8.11;100.00;97030.56;5039056;28;20060;-69
2022/12/24 05:46:17;;;;;;;10.35;1.63;;;;;;;8.03;100.00;97039.03;5038984;28;20103;-69
2022/12/24 05:48:45;;;;;;;12.10;1.70;;;;;;;8.11;100.00;97052.13;5040966;28;20503;-69
2022/12/24 05:51:13;;;;;;;9.63;1.60;;;;;;;8.02;100.00;97042.81;5037898;28;20049;-69
2022/12/24 05:53:40;;;;;;;9.63;2.00;;;;;;;8.05;100.00;97048.56;5039828;28;20493;-69
2022/12/24 05:56:10;;;;;;;11.70;2.33;;;;;;;8.07;99.65;97045.59;5043119;28;20041;-69
2022/12/24 05:58:38;;;;;;;11.43;1.67;;;;;;;8.01;100.00;97046.56;5038992;28;20037;-69
2022/12/24 06:01:05;;;;;;;7.28;1.98;;;;;;;7.94;99.92;97044.03;5038494;28;20060;-69
2022/12/24 06:03:33;;;;;;;4.78;1.35;;;;;;;7.97;99.41;97046.25;5040971;28;20112;-69
2022/12/24 06:06:02;;;;;;;8.65;1.52;;;;;;;7.98;99.21;97057.84;5039791;28;20049;-69
2022/12/24 06:08:30;;;;;;;9.60;2.33;;;;;;;7.92;99.87;97062.31;5037787;28;20128;-69
2022/12/24 06:10:58;;;;;;;8.80;1.98;;;;;;;7.95;99.22;97064.53;5031313;28;20041;-69
2022/12/24 06:13:25;;;;;;;10.77;2.58;;;;;;;8.01;99.05;97070.84;5030965;28;20409;-69
2022/12/24 06:15:57;;;;;;;8.85;1.17;;;;;;;7.86;99.96;97058.75;5032278;28;20095;-69
2022/12/24 06:18:24;;;;;;;9.75;1.75;;;;;;;7.87;99.83;97057.66;5034854;28;20040;-68
2022/12/24 06:20:52;;;;;;;17.77;2.83;;;;;;;7.89;99.45;97062.81;5029729;28;20064;-69
2022/12/24 06:23:20;;;;;;;9.50;1.90;;;;;;;7.98;99.05;97065.94;5042031;28;20040;-69
2022/12/24 06:25:47;;;;;;;15.18;2.42;;;;;;;7.86;99.51;97066.81;5033578;28;20120;-69
2022/12/24 06:28:13;;;;;;;8.48;1.48;;;;;;;7.89;99.36;97065.53;5044247;28;20459;-69
2022/12/24 06:30:40;;;;;;;10.35;1.95;;;;;;;7.81;100.00;97077.50;5046932;28;20339;-70
2022/12/24 06:33:07;;;;;;;8.70;1.85;;;;;;;7.62;100.00;97077.69;5035849;28;20405;-69
2022/12/24 06:35:34;;;;;;;11.40;2.20;;;;;;;7.51;100.00;97094.69;5032175;28;20095;-69
2022/12/24 06:38:01;;;;;;;13.20;2.35;;;;;;;7.42;100.00;97092.38;5042659;28;20048;-69
2022/12/24 06:40:27;;;;;;;10.15;2.00;;;;;;;7.28;100.00;97091.03;5047859;28;20079;-69
2022/12/24 06:42:54;;;;;;;11.27;1.73;;;;;;;7.31;100.00;97093.25;5037386;28;20041;-66
2022/12/24 06:45:20;;;;;;;6.95;1.83;;;;;;;7.32;100.00;97102.97;5030344;28;20688;-67
2022/12/24 06:47:47;;;;;;;10.18;2.00;;;;;;;7.26;100.00;97109.31;5046240;28;20073;-57
2022/12/24 06:50:13;;;;;;;11.98;2.10;;;;;;;7.28;100.00;97112.56;5037458;28;20038;-53
2022/12/24 06:52:40;;;;;;;11.15;2.03;;;;;;;7.29;100.00;97130.34;5041790;28;20516;-52
2022/12/24 06:55:07;;;;;;;10.45;1.70;;;;;;;7.26;100.00;97128.97;5052666;28;20075;-51
2022/12/24 06:57:33;;;;;;;11.48;2.47;;;;;;;7.27;100.00;97124.41;5038304;28;20040;-55
2022/12/24 07:00:00;;;;;;;18.08;2.78;;;;;;;7.31;100.00;97138.22;5044241;28;20152;-54
2022/12/24 07:02:26;;;;;;;13.48;2.75;;;;;;;7.29;100.00;97125.81;5026295;28;20052;-54
2022/12/24 07:04:53;;;;;;;8.48;2.00;;;;;;;7.34;100.00;97111.59;5028918;28;20033;-59
2022/12/24 07:07:20;;;;;;;12.77;2.42;;;;;;;7.33;100.00;97133.41;5029637;28;20049;-57
2022/12/24 07:09:46;;;;;;;8.40;2.42;;;;;;;7.46;100.00;97135.00;5034763;28;20124;-60
2022/12/24 07:12:13;;;;;;;9.90;1.90;;;;;;;7.50;100.00;97138.88;5039073;28;20461;-69
2022/12/24 07:14:39;;;;;;;6.63;1.50;;;;;;;7.58;100.00;97143.91;5039164;28;20497;-68
2022/12/24 07:17:06;;;;;;;10.00;1.80;;;;;;;7.54;100.00;97143.56;5042362;28;20060;-68
2022/12/24 07:19:34;;;;;;;7.65;1.70;;;;;;;7.59;100.00;97137.44;5035884;28;20064;-68
2022/12/24 07:22:01;;;;;;;7.97;1.40;;;;;;;7.78;100.00;97151.56;5041741;28;20056;-68
2022/12/24 07:24:27;;;;;;;12.32;1.42;;;;;;;7.90;100.00;97150.72;5034347;28;20056;-69
2022/12/24 07:26:54;;;;;;;6.07;1.52;;;;;;;7.87;100.00;97146.63;5038055;28;20044;-69
2022/12/24 07:29:20;;;;;;;12.40;2.15;;;;;;;7.80;100.00;97159.41;5045184;28;20049;-68
2022/12/24 07:31:47;;;;;;;8.98;1.65;;;;;;;7.78;100.00;97162.34;5027936;28;20073;-69
2022/12/24 07:34:13;;;;;;;12.80;1.98;;;;;;;7.69;100.00;97163.78;5030647;28;20049;-68
2022/12/24 07:36:40;;;;;;;8.68;1.50;;;;;;;7.48;100.00;97157.97;5046971;28;20045;-68
2022/12/24 07:39:06;;;;;;;7.38;1.85;;;;;;;7.49;100.00;97170.38;5050066;28;20045;-68
2022/12/24 07:41:33;;;;;;;9.48;1.50;;;;;;;7.54;100.00;97166.97;5033916;28;20068;-68
2022/12/24 07:44:10;;;;;;;8.07;1.35;;;;;;;7.61;100.00;97172.25;5031470;28;20033;-68
2022/12/24 07:46:37;;;;;;;13.10;2.45;;;;;;;7.55;100.00;97166.75;5030971;28;20041;-68
2022/12/24 07:49:03;;;;;;;13.25;1.70;;;;;;;7.60;100.00;97166.03;5045519;28;20087;-68
2022/12/24 07:51:30;;;;;;;13.90;2.58;;;;;;;7.61;100.00;97169.53;5049835;28;20041;-68
2022/12/24 07:53:57;;;;;;;8.98;1.90;;;;;;;7.73;100.00;97166.81;5031666;28;20069;-68
2022/12/24 07:56:23;;;;;;;8.10;1.45;;;;;;;7.79;100.00;97173.97;5064653;28;20044;-68
2022/12/24 07:58:50;;;;;;;10.15;1.73;;;;;;;7.75;100.00;97178.19;5051221;28;20075;-68
2022/12/24 08:01:18;;;;;;;15.63;2.20;;;;;;;7.74;100.00;97180.06;5042880;28;20045;-68
2022/12/24 08:03:44;;;;;;;12.13;2.05;;;;;;;7.75;100.00;97187.09;5045979;28;20059;-68
2022/12/24 08:06:11;;;;;;;7.80;1.75;;;;;;;7.87;100.00;97183.53;5047307;28;20037;-68
2022/12/24 08:08:37;;;;;;;9.32;1.60;;;;;;;7.73;100.00;97178.41;5038326;28;20094;-68
2022/12/24 08:11:06;;;;;;;10.73;2.20;;;;;;;7.59;100.00;97193.22;5048800;28;20692;-68
2022/12/24 08:13:33;;;;;;;15.02;2.38;;;;;;;7.66;100.00;97194.72;5043275;28;20037;-69
2022/12/24 08:15:59;;;;;;;8.70;1.70;;;;;;;7.54;100.00;97193.91;5030851;28;20095;-68
2022/12/24 08:18:26;;;;;;;8.52;2.53;;;;;;;7.62;100.00;97198.13;5032985;28;20049;-68
2022/12/24 08:20:52;;;;;;;12.35;1.70;;;;;;;7.57;100.00;97189.94;5033965;28;20119;-68
2022/12/24 08:23:19;;;;;;;14.05;2.00;;;;;;;7.55;100.00;97198.25;5039716;28;20048;-68
2022/12/24 08:25:47;;;;;;;9.35;2.35;;;;;;;7.54;100.00;97205.53;5048605;28;20080;-68
2022/12/24 08:28:16;;;;;;;7.68;1.77;;;;;;;7.47;100.00;97204.81;5040881;28;20608;-68
2022/12/24 08:30:43;;;;;;;13.00;1.55;;;;;;;7.56;100.00;97199.91;5026816;28;20045;-68
2022/12/24 08:33:10;;;;;;;7.97;1.83;;;;;;;7.71;100.00;97206.66;5040962;28;20060;-68
2022/12/24 08:35:37;;;;;;;7.30;1.92;;;;;;;7.66;100.00;97210.91;5049179;28;20534;-68
2022/12/24 08:38:03;;;;;;;12.50;2.47;;;;;;;7.49;100.00;97216.16;5037616;28;20069;-68
2022/12/24 08:40:30;;;;;;;10.18;2.05;;;;;;;7.26;100.00;97212.44;5034301;28;20041;-68
2022/12/24 08:42:56;;;;;;;7.20;2.53;;;;;;;7.27;100.00;97215.97;5042540;28;20044;-68
2022/12/24 08:45:23;;;;;;;10.15;1.95;;;;;;;7.28;100.00;97217.59;5048372;28;20123;-68
2022/12/24 08:47:50;;;;;;;9.10;2.30;;;;;;;7.31;100.00;97219.84;5049095;28;20044;-68
2022/12/24 08:50:16;;;;;;;13.32;1.95;;;;;;;7.35;100.00;97229.09;5044871;28;20041;-68
2022/12/24 08:52:43;;;;;;;11.98;3.83;;;;;;;7.40;100.00;97239.13;5027773;28;20037;-68
2022/12/24 08:55:09;;;;;;;13.25;2.92;;;;;;;7.42;100.00;97228.97;5050541;28;20098;-68
2022/12/24 08:57:36;;;;;;;10.32;2.63;;;;;;;7.53;100.00;97221.94;5049594;28;20064;-68
2022/12/24 09:00:05;;;;;;;14.52;2.55;;;;;;;7.63;100.00;97214.06;5048184;28;20054;-68
2022/12/24 09:02:31;;;;;;;8.73;2.00;;;;;;;7.81;100.00;97218.47;5038245;28;20041;-68
2022/12/24 09:04:58;;;;;;;12.82;2.97;;;;;;;7.79;100.00;97226.00;5029262;28;20064;-68
2022/12/24 09:07:25;;;;;;;11.63;2.15;;;;;;;7.97;98.94;97224.19;5032321;28;20052;-68
2022/12/24 09:09:51;;;;;;;9.75;2.78;;;;;;;8.09;98.24;97234.94;5048323;28;20045;-68
2022/12/24 09:12:18;;;;;;;6.75;1.52;;;;;;;8.06;99.27;97240.81;5047659;28;20095;-68
2022/12/24 09:14:44;;;;;;;11.52;1.83;;;;;;;8.16;98.68;97253.69;5034437;28;20176;-68
2022/12/24 09:17:11;;;;;;;7.57;1.75;;;;;;;8.17;98.83;97255.31;5029824;28;20045;-69
2022/12/24 09:19:38;;;;;;;12.02;2.03;;;;;;;8.22;98.41;97263.50;5038331;28;20057;-68
2022/12/24 09:22:04;;;;;;;12.50;2.95;;;;;;;8.21;98.43;97267.25;5041417;28;20037;-68
2022/12/24 09:24:31;;;;;;;9.82;2.28;;;;;;;8.17;98.97;97271.50;5047394;28;20095;-68
2022/12/24 09:26:58;;;;;;;10.38;2.45;;;;;;;8.15;99.36;97274.44;5039328;28;20107;-68
2022/12/24 09:29:24;;;;;;;12.68;2.00;;;;;;;8.25;99.71;97284.59;5034887;28;20057;-68
2022/12/24 09:31:51;;;;;;;9.48;2.25;;;;;;;8.38;99.52;97288.94;5032972;28;20045;-68
2022/12/24 09:34:18;;;;;;;7.18;1.60;;;;;;;8.59;98.92;97290.16;5034359;28;20041;-68
2022/12/24 09:36:45;;;;;;;10.38;2.97;;;;;;;8.76;97.77;97286.69;5031966;28;20076;-68
2022/12/24 09:39:12;;;;;;;8.88;2.15;;;;;;;8.83;96.88;97290.06;5045774;28;20357;-68
2022/12/24 09:41:54;;;;;;;11.93;2.85;;;;;;;8.91;97.20;97294.22;5038598;28;20136;-68
2022/12/24 09:44:38;;;;;;;11.45;2.30;;;;;;;9.05;95.10;97289.34;5050910;28;20040;-69
2022/12/24 09:47:20;;;;;;;8.85;1.70;;;;;;;9.20;93.75;97282.56;5046234;28;20125;-68
2022/12/24 09:49:49;;;;;;;;;;;;;;;9.34;92.67;97285.75;5033545;28;20599;-68
2022/12/24 09:52:27;;;;;;;10.82;1.92;;;;;;;9.39;92.03;97280.44;5036784;28;19928;-68
2022/12/24 09:55:05;;;;;;;7.28;1.63;;;;;;;9.50;90.86;97289.50;5042588;28;20051;-69
2022/12/24 09:57:37;;;;;;;11.20;2.65;;;;;;;9.42;91.26;97293.44;5030232;28;20184;-68
2022/12/24 10:00:15;;;;;;;12.27;2.50;;;;;;;9.46;90.34;97293.75;5038179;28;20243;-68
2022/12/24 10:02:41;;;;;;;12.48;2.05;;;;;;;9.57;92.53;97287.47;5042907;28;20049;-68
2022/12/24 10:05:13;;;;;;;11.82;2.17;;;;;;;9.58;91.78;97280.19;5045254;28;20048;-69
2022/12/24 10:07:49;;;;;;;;;;;;;;;9.66;91.40;97278.94;5048848;28;20125;-67
2022/12/24 10:10:40;;;;;;;11.00;2.20;;;;;;;9.74;92.98;97273.91;5028771;28;20375;-68
2022/12/24 10:13:28;;;;;;;12.80;2.78;;;;;;;9.79;90.38;97277.75;5034042;28;20048;-68
2022/12/24 10:16:33;;;;;;;7.13;1.83;;;;;;;9.96;90.89;97281.25;5057073;28;20509;-68
2022/12/24 10:19:12;;;;;;;12.40;2.42;;;;;;;9.96;88.46;97286.66;5044990;28;20041;-68
2022/12/24 10:21:54;;;;;;;6.60;2.08;;;;;;;9.96;88.68;97280.44;5046044;28;20076;-68
2022/12/24 10:24:32;;;;;;;14.40;2.28;;;;;;;9.92;87.43;97290.94;5044879;28;20106;-68
2022/12/24 10:27:09;;;;;;;8.57;1.63;;;;;;;9.85;87.76;97304.59;5047311;28;20060;-68
2022/12/24 10:29:40;;;;;;;8.10;2.47;;;;;;;9.84;88.39;97310.28;5048246;28;20078;-68
2022/12/24 10:32:07;;;;;;;10.65;1.55;;;;;;;9.91;86.64;97313.63;5054747;28;20041;-69
2022/12/24 10:34:56;;;;;;;8.13;2.30;;;;;;;9.83;87.62;97297.81;5052395;28;20056;-67
2022/12/24 10:37:27;;;;;;;8.95;1.77;;;;;;;9.82;88.08;97305.13;5045269;28;20099;-70
2022/12/24 10:39:55;;;;;;;9.30;1.58;;;;;;;9.77;89.10;97299.66;5046268;28;20053;-70
2022/12/24 10:42:26;;;;;;;7.82;2.30;;;;;;;9.75;89.79;97308.00;5035855;28;20083;-69
2022/12/24 10:45:01;;;;;;;15.50;3.15;;;;;;;9.63;91.32;97304.56;5036804;28;20649;-69
2022/12/24 10:47:30;;;;;;;9.18;2.30;;;;;;;9.59;91.55;97312.34;5035358;28;20045;-69
2022/12/24 10:50:04;;;;;;;5.93;2.00;;;;;;;9.56;91.71;97310.16;5036076;28;20412;-70
2022/12/24 10:52:36;;;;;;;9.10;2.47;;;;;;;9.61;92.57;97309.41;5046602;28;20029;-70
2022/12/24 10:55:18;;;;;;;7.70;1.98;;;;;;;9.60;94.98;97305.91;5058867;28;20385;-70
2022/12/24 10:57:46;;;;;;;;;;;;;;;9.58;96.25;97310.72;5047331;28;20865;-69
2022/12/24 11:00:22;;;;;;;9.85;2.85;;;;;;;9.65;95.14;97301.63;5041443;28;19951;-71
2022/12/24 11:03:27;;;;;;;13.55;2.20;;;;;;;9.72;93.99;97303.09;5042779;28;20084;-70
2022/12/24 11:06:01;;;;;;;10.23;2.50;;;;;;;9.72;93.75;97303.09;5040304;28;20428;-72
2022/12/24 11:08:27;;;;;;;10.43;1.90;;;;;;;9.75;93.36;97302.59;5035628;28;20044;-69
2022/12/24 11:10:55;;;;;;;15.93;2.97;;;;;;;9.66;91.20;97297.84;5032620;28;20184;-67
2022/12/24 11:13:44;;;;;;;9.27;3.10;;;;;;;9.33;92.09;97301.13;5037026;28;20046;-66
2022/12/24 11:16:28;;;;;;;8.82;2.03;;;;;;;9.31;92.45;97299.75;5037655;28;20045;-67
2022/12/24 11:18:58;;;;;;;8.43;1.85;;;;;;;9.22;91.98;97307.47;5035335;28;20041;-66
2022/12/24 11:21:28;;;;;;;6.03;2.03;;;;;;;9.25;92.39;97304.25;5036121;28;20045;-67
2022/12/24 11:24:08;;;;;;;10.20;2.00;;;;;;;9.29;92.97;97310.78;5035826;28;20041;-67
2022/12/24 11:26:34;;;;;;;8.52;2.33;;;;;;;9.35;92.73;97315.25;5033349;28;20045;-66
2022/12/24 11:29:07;;;;;;;8.80;2.00;;;;;;;9.35;91.79;97312.53;5032737;28;20099;-67
2022/12/24 11:31:36;;;;;;;7.85;2.40;;;;;;;9.44;91.66;97314.81;5031240;28;20041;-66
2022/12/24 11:34:35;;;;;;;11.82;2.75;;;;;;;9.42;95.77;97325.06;5036108;28;20045;-67
2022/12/24 11:37:17;;;;;;;10.50;2.70;;;;;;;9.41;92.97;97318.84;5020314;28;20064;-67
2022/12/24 11:40:00;;;;;;;10.25;2.03;;;;;;;9.41;95.82;97313.44;5034238;28;20048;-67
2022/12/24 11:42:37;;;;;;;8.65;2.03;;;;;;;9.39;95.53;97312.06;5033682;28;20045;-67
2022/12/24 11:45:16;;;;;;;9.82;2.38;;;;;;;9.40;98.80;97317.19;5033077;28;20049;-67
2022/12/24 11:47:42;;;;;;;10.52;2.35;;;;;;;9.44;99.53;97315.63;5036684;28;20137;-66
2022/12/24 11:50:35;;;;;;;8.45;2.35;;;;;;;9.52;98.21;97316.28;5033173;28;20551;-67
2022/12/24 11:53:01;;;;;;;9.75;2.97;;;;;;;9.53;95.90;97315.22;5044371;28;20040;-67